sensor_id;sensor_type;location;lat;lon;timestamp;temperature;humidity
995;DHT22;486;48.726;8.964;2022-10-16T00:00:09;15.30;99.90
995;DHT22;486;48.726;8.964;2022-10-16T00:02:39;15.30;99.90
995;DHT22;486;48.726;8.964;2022-10-16T00:05:08;15.30;99.90
995;DHT22;486;48.726;8.964;2022-10-16T00:07:37;15.30;99.90
995;DHT22;486;48.726;8.964;2022-10-16T00:10:07;15.30;99.90
995;DHT22;486;48.726;8.964;2022-10-16T00:12:39;15.30;99.90
995;DHT22;486;48.726;8.964;2022-10-16T00:15:09;15.30;99.90
995;DHT22;486;48.726;8.964;2022-10-16T00:17:38;15.30;99.90
995;DHT22;486;48.726;8.964;2022-10-16T00:20:08;15.30;99.90
995;DHT22;486;48.726;8.964;2022-10-16T00:22:37;15.40;99.90
995;DHT22;486;48.726;8.964;2022-10-16T00:25:06;15.30;99.90
995;DHT22;486;48.726;8.964;2022-10-16T00:27:36;15.30;99.90
995;DHT22;486;48.726;8.964;2022-10-16T00:30:08;15.30;99.90
995;DHT22;486;48.726;8.964;2022-10-16T00:32:38;15.30;99.90
995;DHT22;486;48.726;8.964;2022-10-16T00:35:07;15.20;99.90
995;DHT22;486;48.726;8.964;2022-10-16T00:37:36;15.20;99.90
995;DHT22;486;48.726;8.964;2022-10-16T00:40:06;15.20;99.90
995;DHT22;486;48.726;8.964;2022-10-16T00:42:39;15.10;99.90
995;DHT22;486;48.726;8.964;2022-10-16T00:45:09;15.10;99.90
995;DHT22;486;48.726;8.964;2022-10-16T00:47:41;15.10;99.90
995;DHT22;486;48.726;8.964;2022-10-16T00:50:18;15.10;99.90
995;DHT22;486;48.726;8.964;2022-10-16T00:52:51;15.10;99.90
995;DHT22;486;48.726;8.964;2022-10-16T00:55:21;15.10;99.90
995;DHT22;486;48.726;8.964;2022-10-16T00:57:54;15.10;99.90
995;DHT22;486;48.726;8.964;2022-10-16T01:00:25;15.10;99.90
995;DHT22;486;48.726;8.964;2022-10-16T01:02:56;15.20;99.90
995;DHT22;486;48.726;8.964;2022-10-16T01:05:33;15.20;99.90
995;DHT22;486;48.726;8.964;2022-10-16T01:08:09;15.20;99.90
995;DHT22;486;48.726;8.964;2022-10-16T01:10:48;15.30;99.90
995;DHT22;486;48.726;8.964;2022-10-16T01:13:27;15.30;99.90
995;DHT22;486;48.726;8.964;2022-10-16T01:16:02;15.20;99.90
995;DHT22;486;48.726;8.964;2022-10-16T01:18:43;15.30;99.90
995;DHT22;486;48.726;8.964;2022-10-16T01:21:19;15.30;99.90
995;DHT22;486;48.726;8.964;2022-10-16T01:23:58;15.30;99.90
995;DHT22;486;48.726;8.964;2022-10-16T01:26:38;15.20;99.90
995;DHT22;486;48.726;8.964;2022-10-16T01:29:20;15.20;99.90
995;DHT22;486;48.726;8.964;2022-10-16T01:31:56;15.20;99.90
995;DHT22;486;48.726;8.964;2022-10-16T01:34:32;15.20;99.90
995;DHT22;486;48.726;8.964;2022-10-16T01:37:07;15.20;99.90
995;DHT22;486;48.726;8.964;2022-10-16T01:39:42;15.20;99.90
995;DHT22;486;48.726;8.964;2022-10-16T01:42:17;15.20;99.90
995;DHT22;486;48.726;8.964;2022-10-16T01:44:52;15.20;99.90
995;DHT22;486;48.726;8.964;2022-10-16T01:47:23;15.30;99.90
995;DHT22;486;48.726;8.964;2022-10-16T01:49:53;15.30;99.90
995;DHT22;486;48.726;8.964;2022-10-16T01:52:26;15.30;99.90
995;DHT22;486;48.726;8.964;2022-10-16T01:54:56;15.30;99.90
995;DHT22;486;48.726;8.964;2022-10-16T01:57:27;15.20;99.90
995;DHT22;486;48.726;8.964;2022-10-16T02:00:03;15.20;99.90
995;DHT22;486;48.726;8.964;2022-10-16T02:02:39;15.20;99.90
995;DHT22;486;48.726;8.964;2022-10-16T02:05:14;15.20;99.90
995;DHT22;486;48.726;8.964;2022-10-16T02:07:45;15.20;99.90
995;DHT22;486;48.726;8.964;2022-10-16T02:10:16;15.30;99.90
995;DHT22;486;48.726;8.964;2022-10-16T02:12:48;15.30;99.90
995;DHT22;486;48.726;8.964;2022-10-16T02:15:23;15.30;99.90
995;DHT22;486;48.726;8.964;2022-10-16T02:17:52;15.30;99.90
995;DHT22;486;48.726;8.964;2022-10-16T02:20:25;15.30;99.90
995;DHT22;486;48.726;8.964;2022-10-16T02:22:57;15.30;99.90
995;DHT22;486;48.726;8.964;2022-10-16T02:25:30;15.30;99.90
995;DHT22;486;48.726;8.964;2022-10-16T02:28:03;15.30;99.90
995;DHT22;486;48.726;8.964;2022-10-16T02:30:40;15.30;99.90
995;DHT22;486;48.726;8.964;2022-10-16T02:33:14;15.20;99.90
995;DHT22;486;48.726;8.964;2022-10-16T02:35:46;15.10;99.90
995;DHT22;486;48.726;8.964;2022-10-16T02:38:17;15.20;99.90
995;DHT22;486;48.726;8.964;2022-10-16T02:40:46;15.10;99.90
995;DHT22;486;48.726;8.964;2022-10-16T02:43:16;15.10;99.90
995;DHT22;486;48.726;8.964;2022-10-16T02:45:47;15.10;99.90
995;DHT22;486;48.726;8.964;2022-10-16T02:48:16;15.10;99.90
995;DHT22;486;48.726;8.964;2022-10-16T02:50:45;15.10;99.90
995;DHT22;486;48.726;8.964;2022-10-16T02:53:14;15.10;99.90
995;DHT22;486;48.726;8.964;2022-10-16T02:55:43;15.00;99.90
995;DHT22;486;48.726;8.964;2022-10-16T02:58:12;15.00;99.90
995;DHT22;486;48.726;8.964;2022-10-16T03:00:41;14.90;99.90
995;DHT22;486;48.726;8.964;2022-10-16T03:03:13;14.90;99.90
995;DHT22;486;48.726;8.964;2022-10-16T03:05:43;14.90;99.90
995;DHT22;486;48.726;8.964;2022-10-16T03:08:13;14.90;99.90
995;DHT22;486;48.726;8.964;2022-10-16T03:10:42;15.00;99.90
995;DHT22;486;48.726;8.964;2022-10-16T03:13:11;15.00;99.90
995;DHT22;486;48.726;8.964;2022-10-16T03:15:40;14.90;99.90
995;DHT22;486;48.726;8.964;2022-10-16T03:18:09;15.00;99.90
995;DHT22;486;48.726;8.964;2022-10-16T03:20:41;15.00;99.90
995;DHT22;486;48.726;8.964;2022-10-16T03:23:11;15.00;99.90
995;DHT22;486;48.726;8.964;2022-10-16T03:25:40;15.00;99.90
995;DHT22;486;48.726;8.964;2022-10-16T03:28:09;15.00;99.90
995;DHT22;486;48.726;8.964;2022-10-16T03:30:38;15.00;99.90
995;DHT22;486;48.726;8.964;2022-10-16T03:33:07;14.90;99.90
995;DHT22;486;48.726;8.964;2022-10-16T03:35:36;14.90;99.90
995;DHT22;486;48.726;8.964;2022-10-16T03:38:08;14.90;99.90
995;DHT22;486;48.726;8.964;2022-10-16T03:40:37;14.90;99.90
995;DHT22;486;48.726;8.964;2022-10-16T03:43:06;14.90;99.90
995;DHT22;486;48.726;8.964;2022-10-16T03:45:35;15.00;99.90
995;DHT22;486;48.726;8.964;2022-10-16T03:48:04;15.00;99.90
995;DHT22;486;48.726;8.964;2022-10-16T03:50:33;15.10;99.90
995;DHT22;486;48.726;8.964;2022-10-16T03:53:04;15.10;99.90
995;DHT22;486;48.726;8.964;2022-10-16T03:55:34;15.10;99.90
995;DHT22;486;48.726;8.964;2022-10-16T03:58:04;15.10;99.90
995;DHT22;486;48.726;8.964;2022-10-16T04:00:33;15.10;99.90
995;DHT22;486;48.726;8.964;2022-10-16T04:03:02;15.10;99.90
995;DHT22;486;48.726;8.964;2022-10-16T04:05:31;15.10;99.90
995;DHT22;486;48.726;8.964;2022-10-16T04:08:00;15.10;99.90
995;DHT22;486;48.726;8.964;2022-10-16T04:10:32;15.10;99.90
995;DHT22;486;48.726;8.964;2022-10-16T04:13:01;15.10;99.90
995;DHT22;486;48.726;8.964;2022-10-16T04:15:30;15.10;99.90
995;DHT22;486;48.726;8.964;2022-10-16T04:17:59;15.10;99.90
995;DHT22;486;48.726;8.964;2022-10-16T04:20:28;15.10;99.90
995;DHT22;486;48.726;8.964;2022-10-16T04:22:57;15.10;99.90
995;DHT22;486;48.726;8.964;2022-10-16T04:25:26;15.10;99.90
995;DHT22;486;48.726;8.964;2022-10-16T04:27:58;15.10;99.90
995;DHT22;486;48.726;8.964;2022-10-16T04:30:27;15.10;99.90
995;DHT22;486;48.726;8.964;2022-10-16T04:32:56;15.10;99.90
995;DHT22;486;48.726;8.964;2022-10-16T04:35:24;15.10;99.90
995;DHT22;486;48.726;8.964;2022-10-16T04:37:53;15.10;99.90
995;DHT22;486;48.726;8.964;2022-10-16T04:40:23;15.10;99.90
995;DHT22;486;48.726;8.964;2022-10-16T04:42:52;15.10;99.90
995;DHT22;486;48.726;8.964;2022-10-16T04:45:23;15.10;99.90
995;DHT22;486;48.726;8.964;2022-10-16T04:47:52;15.10;99.90
995;DHT22;486;48.726;8.964;2022-10-16T04:50:21;15.10;99.90
995;DHT22;486;48.726;8.964;2022-10-16T04:53:04;15.10;99.90
995;DHT22;486;48.726;8.964;2022-10-16T04:55:33;15.10;99.90
995;DHT22;486;48.726;8.964;2022-10-16T04:58:03;15.10;99.90
995;DHT22;486;48.726;8.964;2022-10-16T05:00:35;15.10;99.90
995;DHT22;486;48.726;8.964;2022-10-16T05:03:04;15.10;99.90
995;DHT22;486;48.726;8.964;2022-10-16T05:05:34;15.10;99.90
995;DHT22;486;48.726;8.964;2022-10-16T05:08:04;15.10;99.90
995;DHT22;486;48.726;8.964;2022-10-16T05:10:33;15.00;99.90
995;DHT22;486;48.726;8.964;2022-10-16T05:13:02;15.00;99.90
995;DHT22;486;48.726;8.964;2022-10-16T05:15:34;15.00;99.90
995;DHT22;486;48.726;8.964;2022-10-16T05:18:03;15.00;99.90
995;DHT22;486;48.726;8.964;2022-10-16T05:20:32;15.00;99.90
995;DHT22;486;48.726;8.964;2022-10-16T05:23:01;15.00;99.90
995;DHT22;486;48.726;8.964;2022-10-16T05:25:30;15.00;99.90
995;DHT22;486;48.726;8.964;2022-10-16T05:27:59;14.90;99.90
995;DHT22;486;48.726;8.964;2022-10-16T05:30:28;14.90;99.90
995;DHT22;486;48.726;8.964;2022-10-16T05:32:59;14.90;99.90
995;DHT22;486;48.726;8.964;2022-10-16T05:35:28;14.90;99.90
995;DHT22;486;48.726;8.964;2022-10-16T05:37:57;14.90;99.90
995;DHT22;486;48.726;8.964;2022-10-16T05:40:26;14.90;99.90
995;DHT22;486;48.726;8.964;2022-10-16T05:42:55;14.90;99.90
995;DHT22;486;48.726;8.964;2022-10-16T05:45:24;14.90;99.90
995;DHT22;486;48.726;8.964;2022-10-16T05:47:53;14.90;99.90
995;DHT22;486;48.726;8.964;2022-10-16T05:50:25;14.90;99.90
995;DHT22;486;48.726;8.964;2022-10-16T05:52:54;15.00;99.90
995;DHT22;486;48.726;8.964;2022-10-16T05:55:23;15.10;99.90
995;DHT22;486;48.726;8.964;2022-10-16T05:57:54;15.10;99.90
995;DHT22;486;48.726;8.964;2022-10-16T06:00:23;15.10;99.90
995;DHT22;486;48.726;8.964;2022-10-16T06:02:52;15.10;99.90
995;DHT22;486;48.726;8.964;2022-10-16T06:05:24;15.10;99.90
995;DHT22;486;48.726;8.964;2022-10-16T06:07:54;15.10;99.90
995;DHT22;486;48.726;8.964;2022-10-16T06:10:23;15.10;99.90
995;DHT22;486;48.726;8.964;2022-10-16T06:12:53;15.10;99.90
995;DHT22;486;48.726;8.964;2022-10-16T06:15:22;15.10;99.90
995;DHT22;486;48.726;8.964;2022-10-16T06:17:51;15.10;99.90
995;DHT22;486;48.726;8.964;2022-10-16T06:20:20;15.10;99.90
995;DHT22;486;48.726;8.964;2022-10-16T06:22:51;15.10;99.90
995;DHT22;486;48.726;8.964;2022-10-16T06:25:21;15.10;99.90
995;DHT22;486;48.726;8.964;2022-10-16T06:27:50;15.10;99.90
995;DHT22;486;48.726;8.964;2022-10-16T06:30:19;15.20;99.90
995;DHT22;486;48.726;8.964;2022-10-16T06:32:48;15.20;99.90
995;DHT22;486;48.726;8.964;2022-10-16T06:35:17;15.30;99.90
995;DHT22;486;48.726;8.964;2022-10-16T06:37:46;15.30;99.90
995;DHT22;486;48.726;8.964;2022-10-16T06:40:17;15.40;99.90
995;DHT22;486;48.726;8.964;2022-10-16T06:42:46;15.40;99.90
995;DHT22;486;48.726;8.964;2022-10-16T06:45:15;15.50;99.90
995;DHT22;486;48.726;8.964;2022-10-16T06:47:44;15.50;99.90
995;DHT22;486;48.726;8.964;2022-10-16T06:50:14;15.50;99.90
995;DHT22;486;48.726;8.964;2022-10-16T06:52:43;15.50;99.90
995;DHT22;486;48.726;8.964;2022-10-16T06:55:12;15.60;99.90
995;DHT22;486;48.726;8.964;2022-10-16T06:57:46;15.70;99.90
995;DHT22;486;48.726;8.964;2022-10-16T07:00:16;15.80;99.90
995;DHT22;486;48.726;8.964;2022-10-16T07:02:45;15.80;99.90
995;DHT22;486;48.726;8.964;2022-10-16T07:05:14;16.00;99.90
995;DHT22;486;48.726;8.964;2022-10-16T07:07:43;16.10;99.90
995;DHT22;486;48.726;8.964;2022-10-16T07:10:12;16.10;99.90
995;DHT22;486;48.726;8.964;2022-10-16T07:12:41;16.20;99.90
995;DHT22;486;48.726;8.964;2022-10-16T07:15:13;16.30;99.90
995;DHT22;486;48.726;8.964;2022-10-16T07:17:42;16.20;99.90
995;DHT22;486;48.726;8.964;2022-10-16T07:20:11;16.20;99.90
995;DHT22;486;48.726;8.964;2022-10-16T07:22:43;16.20;99.90
995;DHT22;486;48.726;8.964;2022-10-16T07:25:12;16.10;99.90
995;DHT22;486;48.726;8.964;2022-10-16T07:27:41;16.10;99.90
995;DHT22;486;48.726;8.964;2022-10-16T07:30:13;16.10;99.90
995;DHT22;486;48.726;8.964;2022-10-16T07:32:42;16.20;99.90
995;DHT22;486;48.726;8.964;2022-10-16T07:35:11;16.30;99.90
995;DHT22;486;48.726;8.964;2022-10-16T07:37:44;16.40;99.90
995;DHT22;486;48.726;8.964;2022-10-16T07:40:13;16.40;99.90
995;DHT22;486;48.726;8.964;2022-10-16T07:42:42;16.50;99.90
995;DHT22;486;48.726;8.964;2022-10-16T07:45:14;16.50;99.90
995;DHT22;486;48.726;8.964;2022-10-16T07:47:43;16.60;99.90
995;DHT22;486;48.726;8.964;2022-10-16T07:50:12;16.50;99.90
995;DHT22;486;48.726;8.964;2022-10-16T07:52:41;16.60;99.90
995;DHT22;486;48.726;8.964;2022-10-16T07:55:10;16.70;99.90
995;DHT22;486;48.726;8.964;2022-10-16T07:57:39;16.70;99.90
995;DHT22;486;48.726;8.964;2022-10-16T08:00:10;16.90;99.90
995;DHT22;486;48.726;8.964;2022-10-16T08:02:42;17.00;99.90
995;DHT22;486;48.726;8.964;2022-10-16T08:05:11;17.10;99.90
995;DHT22;486;48.726;8.964;2022-10-16T08:07:41;17.20;99.90
995;DHT22;486;48.726;8.964;2022-10-16T08:10:16;17.40;99.90
995;DHT22;486;48.726;8.964;2022-10-16T08:12:45;17.50;99.90
995;DHT22;486;48.726;8.964;2022-10-16T08:15:14;17.60;99.90
995;DHT22;486;48.726;8.964;2022-10-16T08:17:54;17.70;99.90
995;DHT22;486;48.726;8.964;2022-10-16T08:20:24;17.80;99.90
995;DHT22;486;48.726;8.964;2022-10-16T08:22:54;17.80;99.90
995;DHT22;486;48.726;8.964;2022-10-16T08:25:23;17.90;99.90
995;DHT22;486;48.726;8.964;2022-10-16T08:27:53;17.90;99.90
995;DHT22;486;48.726;8.964;2022-10-16T08:30:23;17.90;99.90
995;DHT22;486;48.726;8.964;2022-10-16T08:32:55;18.00;99.90
995;DHT22;486;48.726;8.964;2022-10-16T08:35:24;18.10;99.90
995;DHT22;486;48.726;8.964;2022-10-16T08:37:53;18.10;99.90
995;DHT22;486;48.726;8.964;2022-10-16T08:40:24;18.10;99.90
995;DHT22;486;48.726;8.964;2022-10-16T08:43:10;18.10;99.90
995;DHT22;486;48.726;8.964;2022-10-16T08:46:08;18.10;99.90
995;DHT22;486;48.726;8.964;2022-10-16T08:48:57;18.10;99.90
995;DHT22;486;48.726;8.964;2022-10-16T08:51:33;18.10;99.90
995;DHT22;486;48.726;8.964;2022-10-16T08:54:05;18.20;99.90
995;DHT22;486;48.726;8.964;2022-10-16T08:56:35;18.30;99.90
995;DHT22;486;48.726;8.964;2022-10-16T08:59:06;18.30;99.90
995;DHT22;486;48.726;8.964;2022-10-16T09:01:40;18.30;99.90
995;DHT22;486;48.726;8.964;2022-10-16T09:07:29;18.50;99.90
995;DHT22;486;48.726;8.964;2022-10-16T09:10:19;18.50;99.90
995;DHT22;486;48.726;8.964;2022-10-16T09:13:01;18.70;99.90
995;DHT22;486;48.726;8.964;2022-10-16T09:15:38;18.90;99.90
995;DHT22;486;48.726;8.964;2022-10-16T09:18:15;19.00;99.90
995;DHT22;486;48.726;8.964;2022-10-16T09:20:56;19.10;99.90
995;DHT22;486;48.726;8.964;2022-10-16T09:23:34;19.10;99.90
995;DHT22;486;48.726;8.964;2022-10-16T09:26:05;19.10;99.90
995;DHT22;486;48.726;8.964;2022-10-16T09:28:39;19.30;99.90
995;DHT22;486;48.726;8.964;2022-10-16T09:31:15;19.30;99.90
995;DHT22;486;48.726;8.964;2022-10-16T09:33:49;19.30;99.90
995;DHT22;486;48.726;8.964;2022-10-16T09:36:24;19.20;99.90
995;DHT22;486;48.726;8.964;2022-10-16T09:39:03;19.00;99.90
995;DHT22;486;48.726;8.964;2022-10-16T09:41:34;18.90;99.90
995;DHT22;486;48.726;8.964;2022-10-16T09:44:18;18.80;99.90
995;DHT22;486;48.726;8.964;2022-10-16T09:46:48;18.90;99.90
995;DHT22;486;48.726;8.964;2022-10-16T09:49:22;18.90;99.90
995;DHT22;486;48.726;8.964;2022-10-16T09:52:03;19.10;99.90
995;DHT22;486;48.726;8.964;2022-10-16T09:54:33;19.30;99.90
995;DHT22;486;48.726;8.964;2022-10-16T09:57:06;19.60;99.90
995;DHT22;486;48.726;8.964;2022-10-16T09:59:46;19.90;99.90
995;DHT22;486;48.726;8.964;2022-10-16T10:02:17;19.90;99.90
995;DHT22;486;48.726;8.964;2022-10-16T10:04:50;19.80;99.90
995;DHT22;486;48.726;8.964;2022-10-16T10:07:25;20.00;99.90
995;DHT22;486;48.726;8.964;2022-10-16T10:09:58;20.10;99.90
995;DHT22;486;48.726;8.964;2022-10-16T10:12:28;20.40;99.90
995;DHT22;486;48.726;8.964;2022-10-16T10:15:04;20.70;99.90
995;DHT22;486;48.726;8.964;2022-10-16T10:17:45;21.00;99.90
995;DHT22;486;48.726;8.964;2022-10-16T10:20:23;21.30;99.90
995;DHT22;486;48.726;8.964;2022-10-16T10:22:57;21.50;99.90
995;DHT22;486;48.726;8.964;2022-10-16T10:25:41;21.50;99.90
995;DHT22;486;48.726;8.964;2022-10-16T10:28:25;21.50;99.90
995;DHT22;486;48.726;8.964;2022-10-16T10:31:05;21.60;99.90
995;DHT22;486;48.726;8.964;2022-10-16T10:33:42;21.80;99.90
995;DHT22;486;48.726;8.964;2022-10-16T10:36:31;21.90;99.90
995;DHT22;486;48.726;8.964;2022-10-16T10:39:08;21.90;99.90
995;DHT22;486;48.726;8.964;2022-10-16T10:41:58;22.00;99.90
995;DHT22;486;48.726;8.964;2022-10-16T10:44:54;22.00;99.90
995;DHT22;486;48.726;8.964;2022-10-16T10:47:38;22.10;99.90
995;DHT22;486;48.726;8.964;2022-10-16T10:50:18;22.30;99.90
995;DHT22;486;48.726;8.964;2022-10-16T10:52:59;22.40;99.90
995;DHT22;486;48.726;8.964;2022-10-16T10:55:39;22.50;99.90
995;DHT22;486;48.726;8.964;2022-10-16T11:01:31;22.50;99.90
995;DHT22;486;48.726;8.964;2022-10-16T11:04:29;22.60;99.90
995;DHT22;486;48.726;8.964;2022-10-16T11:07:13;22.60;99.90
995;DHT22;486;48.726;8.964;2022-10-16T11:09:47;22.70;99.90
995;DHT22;486;48.726;8.964;2022-10-16T11:12:22;22.60;99.90
995;DHT22;486;48.726;8.964;2022-10-16T11:14:58;22.70;99.90
995;DHT22;486;48.726;8.964;2022-10-16T11:17:35;22.70;99.90
995;DHT22;486;48.726;8.964;2022-10-16T11:20:14;22.70;99.90
995;DHT22;486;48.726;8.964;2022-10-16T11:22:48;22.80;99.90
995;DHT22;486;48.726;8.964;2022-10-16T11:25:22;22.80;99.90
995;DHT22;486;48.726;8.964;2022-10-16T11:28:00;22.90;99.90
995;DHT22;486;48.726;8.964;2022-10-16T11:30:39;23.10;99.90
995;DHT22;486;48.726;8.964;2022-10-16T11:33:23;23.10;99.90
995;DHT22;486;48.726;8.964;2022-10-16T11:36:03;23.20;99.90
995;DHT22;486;48.726;8.964;2022-10-16T11:38:39;23.40;99.90
995;DHT22;486;48.726;8.964;2022-10-16T11:41:19;23.60;99.90
995;DHT22;486;48.726;8.964;2022-10-16T11:44:05;23.70;99.90
995;DHT22;486;48.726;8.964;2022-10-16T11:46:40;23.90;99.90
995;DHT22;486;48.726;8.964;2022-10-16T11:49:14;23.90;99.90
995;DHT22;486;48.726;8.964;2022-10-16T11:51:48;24.00;99.90
995;DHT22;486;48.726;8.964;2022-10-16T11:54:28;24.40;99.90
995;DHT22;486;48.726;8.964;2022-10-16T11:57:08;24.60;99.90
995;DHT22;486;48.726;8.964;2022-10-16T11:59:47;24.40;99.10
995;DHT22;486;48.726;8.964;2022-10-16T12:02:30;24.20;99.90
995;DHT22;486;48.726;8.964;2022-10-16T12:05:11;24.20;98.70
995;DHT22;486;48.726;8.964;2022-10-16T12:07:50;24.30;99.50
995;DHT22;486;48.726;8.964;2022-10-16T12:10:25;24.60;98.30
995;DHT22;486;48.726;8.964;2022-10-16T12:12:57;24.50;98.40
995;DHT22;486;48.726;8.964;2022-10-16T12:15:30;24.20;98.20
995;DHT22;486;48.726;8.964;2022-10-16T12:18:00;24.30;98.20
995;DHT22;486;48.726;8.964;2022-10-16T12:20:31;24.40;98.60
995;DHT22;486;48.726;8.964;2022-10-16T12:23:04;24.50;97.90
995;DHT22;486;48.726;8.964;2022-10-16T12:25:35;24.70;98.00
995;DHT22;486;48.726;8.964;2022-10-16T12:28:20;24.70;96.30
995;DHT22;486;48.726;8.964;2022-10-16T12:30:56;24.80;97.90
995;DHT22;486;48.726;8.964;2022-10-16T12:33:28;24.60;97.40
995;DHT22;486;48.726;8.964;2022-10-16T12:36:00;24.70;98.60
995;DHT22;486;48.726;8.964;2022-10-16T12:38:38;24.60;98.20
995;DHT22;486;48.726;8.964;2022-10-16T12:41:24;24.40;96.80
995;DHT22;486;48.726;8.964;2022-10-16T12:43:54;23.60;98.20
995;DHT22;486;48.726;8.964;2022-10-16T12:46:37;23.30;99.50
995;DHT22;486;48.726;8.964;2022-10-16T12:49:21;23.10;99.90
995;DHT22;486;48.726;8.964;2022-10-16T12:51:52;23.00;99.90
995;DHT22;486;48.726;8.964;2022-10-16T12:54:27;23.00;99.90
995;DHT22;486;48.726;8.964;2022-10-16T12:57:17;23.00;99.90
995;DHT22;486;48.726;8.964;2022-10-16T13:00:02;23.00;99.90
995;DHT22;486;48.726;8.964;2022-10-16T13:03:12;23.00;99.90
995;DHT22;486;48.726;8.964;2022-10-16T13:06:06;23.00;99.90
995;DHT22;486;48.726;8.964;2022-10-16T13:09:12;22.80;99.90
995;DHT22;486;48.726;8.964;2022-10-16T13:12:06;22.90;99.90
995;DHT22;486;48.726;8.964;2022-10-16T13:14:58;23.10;99.90
995;DHT22;486;48.726;8.964;2022-10-16T13:17:39;23.40;99.90
995;DHT22;486;48.726;8.964;2022-10-16T13:20:21;23.60;99.90
995;DHT22;486;48.726;8.964;2022-10-16T13:23:01;23.80;99.90
995;DHT22;486;48.726;8.964;2022-10-16T13:25:44;24.20;99.70
995;DHT22;486;48.726;8.964;2022-10-16T13:28:21;24.30;98.50
995;DHT22;486;48.726;8.964;2022-10-16T13:30:58;24.10;98.60
995;DHT22;486;48.726;8.964;2022-10-16T13:33:32;24.20;98.70
995;DHT22;486;48.726;8.964;2022-10-16T13:36:05;24.40;99.00
995;DHT22;486;48.726;8.964;2022-10-16T13:38:35;24.50;98.30
995;DHT22;486;48.726;8.964;2022-10-16T13:41:12;24.40;98.50
995;DHT22;486;48.726;8.964;2022-10-16T13:43:44;24.40;98.30
995;DHT22;486;48.726;8.964;2022-10-16T13:46:16;24.40;97.80
995;DHT22;486;48.726;8.964;2022-10-16T13:48:56;24.30;98.40
995;DHT22;486;48.726;8.964;2022-10-16T13:51:30;24.20;98.10
995;DHT22;486;48.726;8.964;2022-10-16T13:54:00;24.00;98.00
995;DHT22;486;48.726;8.964;2022-10-16T13:58:27;24.00;97.40
995;DHT22;486;48.726;8.964;2022-10-16T14:00:58;24.10;97.80
995;DHT22;486;48.726;8.964;2022-10-16T14:03:29;24.10;98.30
995;DHT22;486;48.726;8.964;2022-10-16T14:06:01;24.20;98.60
995;DHT22;486;48.726;8.964;2022-10-16T14:08:34;24.30;98.60
995;DHT22;486;48.726;8.964;2022-10-16T14:11:03;24.50;98.50
995;DHT22;486;48.726;8.964;2022-10-16T14:13:34;24.40;97.40
995;DHT22;486;48.726;8.964;2022-10-16T14:16:08;24.20;97.70
995;DHT22;486;48.726;8.964;2022-10-16T14:18:39;24.00;98.40
995;DHT22;486;48.726;8.964;2022-10-16T14:21:13;24.00;98.30
995;DHT22;486;48.726;8.964;2022-10-16T14:23:46;23.80;99.50
995;DHT22;486;48.726;8.964;2022-10-16T14:26:18;24.70;98.70
995;DHT22;486;48.726;8.964;2022-10-16T14:29:00;25.90;96.50
995;DHT22;486;48.726;8.964;2022-10-16T14:31:31;26.50;95.60
995;DHT22;486;48.726;8.964;2022-10-16T14:34:02;26.40;93.80
995;DHT22;486;48.726;8.964;2022-10-16T14:36:31;25.70;93.70
995;DHT22;486;48.726;8.964;2022-10-16T14:39:06;25.60;95.20
995;DHT22;486;48.726;8.964;2022-10-16T14:41:47;25.80;94.20
995;DHT22;486;48.726;8.964;2022-10-16T14:44:18;25.20;94.80
995;DHT22;486;48.726;8.964;2022-10-16T14:46:48;25.40;94.90
995;DHT22;486;48.726;8.964;2022-10-16T14:49:19;25.10;94.10
995;DHT22;486;48.726;8.964;2022-10-16T14:51:49;25.70;95.10
995;DHT22;486;48.726;8.964;2022-10-16T14:54:21;26.90;92.40
995;DHT22;486;48.726;8.964;2022-10-16T14:56:52;27.80;91.20
995;DHT22;486;48.726;8.964;2022-10-16T14:59:27;28.00;90.60
995;DHT22;486;48.726;8.964;2022-10-16T15:01:58;28.20;90.20
995;DHT22;486;48.726;8.964;2022-10-16T15:04:29;28.30;87.90
995;DHT22;486;48.726;8.964;2022-10-16T15:06:58;28.10;88.90
995;DHT22;486;48.726;8.964;2022-10-16T15:09:29;27.70;88.30
995;DHT22;486;48.726;8.964;2022-10-16T15:11:58;27.10;91.30
995;DHT22;486;48.726;8.964;2022-10-16T15:14:28;26.50;91.70
995;DHT22;486;48.726;8.964;2022-10-16T15:16:57;26.00;92.60
995;DHT22;486;48.726;8.964;2022-10-16T15:19:26;25.40;94.20
995;DHT22;486;48.726;8.964;2022-10-16T15:21:55;25.00;95.30
995;DHT22;486;48.726;8.964;2022-10-16T15:24:24;24.80;95.50
995;DHT22;486;48.726;8.964;2022-10-16T15:26:55;24.60;96.40
995;DHT22;486;48.726;8.964;2022-10-16T15:29:24;24.40;96.50
995;DHT22;486;48.726;8.964;2022-10-16T15:31:53;24.30;97.10
995;DHT22;486;48.726;8.964;2022-10-16T15:34:22;24.40;97.30
995;DHT22;486;48.726;8.964;2022-10-16T15:36:51;24.40;97.40
995;DHT22;486;48.726;8.964;2022-10-16T15:39:22;24.30;97.70
995;DHT22;486;48.726;8.964;2022-10-16T15:41:51;24.00;98.00
995;DHT22;486;48.726;8.964;2022-10-16T15:44:23;23.90;98.10
995;DHT22;486;48.726;8.964;2022-10-16T15:46:55;23.60;98.70
995;DHT22;486;48.726;8.964;2022-10-16T15:49:25;23.40;99.90
995;DHT22;486;48.726;8.964;2022-10-16T15:51:54;23.20;99.90
995;DHT22;486;48.726;8.964;2022-10-16T15:54:23;23.00;99.90
995;DHT22;486;48.726;8.964;2022-10-16T15:56:52;23.00;99.90
995;DHT22;486;48.726;8.964;2022-10-16T15:59:24;22.80;99.90
995;DHT22;486;48.726;8.964;2022-10-16T16:01:53;22.70;99.90
995;DHT22;486;48.726;8.964;2022-10-16T16:04:22;22.60;99.90
995;DHT22;486;48.726;8.964;2022-10-16T16:06:51;22.40;99.90
995;DHT22;486;48.726;8.964;2022-10-16T16:09:20;22.30;99.90
995;DHT22;486;48.726;8.964;2022-10-16T16:11:49;22.30;99.90
995;DHT22;486;48.726;8.964;2022-10-16T16:14:18;22.10;99.90
995;DHT22;486;48.726;8.964;2022-10-16T16:16:50;22.00;99.90
995;DHT22;486;48.726;8.964;2022-10-16T16:19:19;21.90;99.90
995;DHT22;486;48.726;8.964;2022-10-16T16:21:48;21.70;99.90
995;DHT22;486;48.726;8.964;2022-10-16T16:24:17;21.50;99.90
995;DHT22;486;48.726;8.964;2022-10-16T16:26:46;21.60;99.90
995;DHT22;486;48.726;8.964;2022-10-16T16:29:16;21.40;99.90
995;DHT22;486;48.726;8.964;2022-10-16T16:31:45;21.30;99.90
995;DHT22;486;48.726;8.964;2022-10-16T16:34:17;21.20;99.90
995;DHT22;486;48.726;8.964;2022-10-16T16:36:46;21.10;99.90
995;DHT22;486;48.726;8.964;2022-10-16T16:39:15;20.90;99.90
995;DHT22;486;48.726;8.964;2022-10-16T16:41:44;20.90;99.90
995;DHT22;486;48.726;8.964;2022-10-16T16:44:14;20.70;99.90
995;DHT22;486;48.726;8.964;2022-10-16T16:46:44;20.60;99.90
995;DHT22;486;48.726;8.964;2022-10-16T16:49:16;20.50;99.90
995;DHT22;486;48.726;8.964;2022-10-16T16:51:46;20.30;99.90
995;DHT22;486;48.726;8.964;2022-10-16T16:54:15;20.20;99.90
995;DHT22;486;48.726;8.964;2022-10-16T16:56:44;20.00;99.90
995;DHT22;486;48.726;8.964;2022-10-16T16:59:14;19.90;99.90
995;DHT22;486;48.726;8.964;2022-10-16T17:01:45;19.80;99.90
995;DHT22;486;48.726;8.964;2022-10-16T17:04:17;19.80;99.90
995;DHT22;486;48.726;8.964;2022-10-16T17:06:46;19.70;99.90
995;DHT22;486;48.726;8.964;2022-10-16T17:09:15;19.60;99.90
995;DHT22;486;48.726;8.964;2022-10-16T17:11:44;19.50;99.90
995;DHT22;486;48.726;8.964;2022-10-16T17:14:14;19.40;99.90
995;DHT22;486;48.726;8.964;2022-10-16T17:16:43;19.30;99.90
995;DHT22;486;48.726;8.964;2022-10-16T17:19:18;19.30;99.90